Romance, AR (72136)

1:29 AM CDT on April 27, 2015 (GMT -0500)
KARROMAN2 | | Change Station
CLOSE
Current Station
Personal Weather Station
Location: Romance, AR
Elevation: 533 ft
Nearby Weather Stations
Active Advisory: Flood Warning

Elev 533 ft 35.21 °N, 92.00 °W | Updated 3 minutes ago

Partly Cloudy
Partly Cloudy
54.3 °F
Feels Like 54.3 °F
N
0.0
Wind Variable Wind from NE
Gusts 9.0 mph

Today
High -- | Low -- °F
--% Chance of Precip.
Yesterday
High -- | Low -- °F
Precip. -- in
6:21 AM 7:50 PM
Waxing Gibbous, 62% visible
Pressure 29.95 in
Visibility 10.0 miles
Clouds Clear
Dew Point 50 °F
Humidity 86%
Rainfall 0.00 in
Snow Depth Not available.
UV 0 out of 12
Pollen 10.10 out of 12
Air Quality Not available.
Flu Activity Sporadic
METAR KSRC 270556Z AUTO 01006KT 10SM CLR 12/09 A2993 RMK AO2 SLP140 T01170094 10150 20117 55001 TSNO

More Conditions Fewer Conditions

Pressure 29.95 in
Visibility 10.0 miles
Clouds Clear
Dew Point 50 °F
Humidity 86%
Rainfall 0.00 in
Snow Depth Not available.
UV 0 out of 12
Pollen 10.10 out of 12
Air Quality Not available.
Flu Activity Sporadic
METAR KSRC 270556Z AUTO 01006KT 10SM CLR 12/09 A2993 RMK AO2 SLP140 T01170094 10150 20117 55001 TSNO

More Conditions Fewer Conditions

10-Day Weather Forecast

Almanac

Astronomy

Apr. 27, 2015 Rise Set
Actual Time
Civil Twilight
Nautical Twilight
Astronomical Twilight
Moon
Length of Visible Light
Length of Day
Tomorrow will be .
, % of the Moon is Illuminated

Today's Extremes

State Highs State Lows

Community

WunderPhotos

Upload Photos

1,817,272 photos uploaded!

WunderBlogs® & News

Nearby

Air Quality

  Air Quality AQ Index Pollutant
Not available.

Snow Depth

Station Depth Elevation

Earthquake Activity

City Distance Mag. Time & Date
Minimum magnitude displayed is 2.5.

Coastal Water Temperatures

Place Temperature

Stations

Nearby Weather Stations

Station Location Temp. Windchill Dew Point Humidity Wind Precip. Elev Updated Type
                   
Flood Warning
Statement as of 8:21 PM CDT on April 26, 2015

The Flood Warning continues for
the White River at Augusta.
* Until further notice... or until the warning is cancelled.
* At 7:00 PM Sunday the stage was 29.8 feet.
* Minor flooding is occurring and minor flooding is forecast.
* Flood stage is 26.0 feet.
* Forecast... the river will continue to fall to near 29.6 feet by
Tuesday morning.


             Fld observed forecast 7 am
location stg stg day time Mon Tue Wed Thu Fri

Lower White River
Augusta 26 29.8 sun 07 PM 29.7 29.6 29.6 29.5 29.4




Lat... Lon 3514 9152 3525 9146 3537 9150 3534 9136
3521 9133 3515 9137